Time;durP1;ratioP1;P1;durP2;ratioP2;P2;SDS_P1;SDS_P2;PMS_P1;PMS_P2;Temp;Humidity;BMP_temperature;BMP_pressure;BME280_temperature;BME280_humidity;BME280_pressure;Samples;Min_cycle;Max_cycle;Signal;HPM_P1;HPM_P2
2022/11/23 00:00:12;;;;;;;;;6.75;2.50;;;;;10.42;63.44;99252.06;5094395;27;45915;-76
2022/11/23 00:02:38;;;;;;;;;4.00;3.25;;;;;10.43;63.40;99252.91;5096180;27;45580;-75
2022/11/23 00:05:03;;;;;;;;;3.75;2.25;;;;;10.40;63.57;99242.72;5096026;27;45616;-73
2022/11/23 00:10:50;;;;;;;;;2.75;2.00;;;;;10.37;63.42;99237.75;5096218;27;45496;-74
2022/11/23 00:13:16;;;;;;;;;3.00;3.00;;;;;10.34;63.56;99232.81;5096797;27;45493;-73
2022/11/23 00:15:41;;;;;;;;;6.00;3.25;;;;;10.32;63.56;99229.50;5096099;27;47073;-74
2022/11/23 00:18:07;;;;;;;;;6.25;3.00;;;;;10.24;63.69;99225.00;5095744;27;46257;-75
2022/11/23 00:20:32;;;;;;;;;5.50;3.00;;;;;10.23;63.84;99219.88;5095406;27;45877;-73
2022/11/23 00:22:57;;;;;;;;;3.00;2.00;;;;;10.25;63.94;99231.06;5095777;27;45747;-74
2022/11/23 00:25:23;;;;;;;;;5.75;4.25;;;;;10.21;63.94;99224.44;5095279;27;47258;-75
2022/11/23 00:27:48;;;;;;;;;3.50;3.00;;;;;10.20;63.77;99231.47;5094114;27;46845;-73
2022/11/23 00:30:13;;;;;;;;;4.25;3.00;;;;;10.18;63.85;99237.81;5095363;27;45632;-74
2022/11/23 00:32:39;;;;;;;;;3.00;3.00;;;;;10.16;64.11;99230.09;5095342;27;45952;-73
2022/11/23 00:35:04;;;;;;;;;4.25;3.25;;;;;10.17;63.97;99236.97;5095394;27;46284;-73
2022/11/23 00:37:29;;;;;;;;;3.00;2.00;;;;;10.15;63.94;99225.78;5093783;27;47163;-74
2022/11/23 00:39:55;;;;;;;;;3.00;2.00;;;;;10.03;64.25;99213.84;5094985;27;45837;-73
2022/11/23 00:42:20;;;;;;;;;4.50;4.50;;;;;10.11;64.30;99222.63;5095400;27;45627;-74
2022/11/23 00:44:46;;;;;;;;;4.25;3.25;;;;;10.13;64.18;99224.28;5094853;27;46274;-73
2022/11/23 00:47:12;;;;;;;;;3.00;2.00;;;;;10.13;64.31;99227.72;5095471;27;45718;-74
2022/11/23 00:49:38;;;;;;;;;3.50;2.50;;;;;10.13;64.36;99229.53;5093623;27;45693;-73
2022/11/23 00:52:03;;;;;;;;;5.00;3.75;;;;;10.08;64.36;99216.88;5095089;27;45883;-74
2022/11/23 00:54:29;;;;;;;;;6.00;3.00;;;;;10.11;64.30;99219.19;5095191;27;46412;-73
2022/11/23 00:56:54;;;;;;;;;4.25;2.25;;;;;10.08;64.26;99217.69;5094832;27;46790;-74
2022/11/23 00:59:19;;;;;;;;;3.25;3.00;;;;;10.05;64.56;99206.66;5095175;27;45668;-75
2022/11/23 01:01:45;;;;;;;;;7.50;2.75;;;;;10.03;64.44;99214.66;5095270;27;45755;-72
2022/11/23 01:04:10;;;;;;;;;1.50;1.50;;;;;10.03;64.44;99209.44;5095186;27;46265;-74
2022/11/23 01:06:38;;;;;;;;;3.25;2.50;;;;;10.02;64.66;99214.81;5094511;27;47143;-74
2022/11/23 01:09:12;;;;;;;;;5.75;3.50;;;;;10.00;64.64;99216.72;5093598;27;45685;-73
2022/11/23 01:11:37;;;;;;;;;4.50;4.50;;;;;9.99;64.41;99209.81;5095248;27;45674;-73
2022/11/23 01:14:03;;;;;;;;;5.50;4.25;;;;;9.96;64.68;99210.94;5094795;27;46264;-74
2022/11/23 01:16:35;;;;;;;;;4.25;2.00;;;;;9.92;64.81;99200.91;5094588;27;46922;-72
2022/11/23 01:19:04;;;;;;;;;4.00;3.00;;;;;9.95;64.89;99209.28;5094691;27;45854;-74
2022/11/23 01:21:31;;;;;;;;;4.50;2.00;;;;;9.92;64.65;99201.75;5093791;27;45726;-74
2022/11/23 01:23:56;;;;;;;;;3.00;3.00;;;;;9.92;64.79;99200.91;5094788;27;45685;-73
2022/11/23 01:26:22;;;;;;;;;4.25;3.00;;;;;9.90;65.00;99200.22;5094733;27;46439;-74
2022/11/23 01:28:48;;;;;;;;;4.50;3.00;;;;;9.87;64.78;99185.63;5095083;27;45627;-74
2022/11/23 01:31:21;;;;;;;;;3.00;3.00;;;;;9.86;65.01;99183.16;5094881;27;45825;-75
2022/11/23 01:33:51;;;;;;;;;2.25;2.25;;;;;9.83;64.89;99175.56;5094860;27;46545;-74
2022/11/23 01:36:20;;;;;;;;;3.50;2.00;;;;;9.82;65.26;99177.38;5094785;27;46339;-73
2022/11/23 01:42:20;;;;;;;;;5.00;2.00;;;;;9.79;65.05;99168.97;5085954;27;45695;-74
2022/11/23 01:44:47;;;;;;;;;4.50;3.00;;;;;9.77;65.17;99171.72;5094804;27;45536;-74
2022/11/23 01:47:12;;;;;;;;;6.00;5.25;;;;;9.68;65.53;99155.09;5094053;27;46342;-73
2022/11/23 01:49:41;;;;;;;;;6.25;5.00;;;;;9.74;65.21;99163.34;5093236;27;45749;-74
2022/11/23 01:52:16;;;;;;;;;5.00;3.00;;;;;9.67;65.30;99150.81;5095360;27;45568;-74
2022/11/23 01:54:49;;;;;;;;;6.25;3.50;;;;;9.69;65.50;99153.28;5094554;27;45976;-74
2022/11/23 01:57:24;;;;;;;;;2.50;2.50;;;;;9.69;65.26;99154.13;5094632;27;46117;-73
2022/11/23 01:59:50;;;;;;;;;5.00;2.00;;;;;9.69;65.36;99155.91;5094060;27;45872;-74
2022/11/23 02:02:16;;;;;;;;;3.00;2.00;;;;;9.67;65.67;99156.03;5094431;27;45488;-73
2022/11/23 02:04:44;;;;;;;;;4.00;2.25;;;;;9.57;65.40;99134.31;5094194;27;47525;-73
2022/11/23 02:07:10;;;;;;;;;3.50;2.50;;;;;9.62;65.66;99157.41;5093758;27;47048;-74
2022/11/23 02:09:36;;;;;;;;;5.25;4.00;;;;;9.62;65.62;99154.81;5094017;27;45780;-74
2022/11/23 02:12:02;;;;;;;;;5.00;5.00;;;;;9.63;65.95;99144.22;5093909;27;45619;-74
2022/11/23 02:14:28;;;;;;;;;5.75;3.00;;;;;9.58;65.80;99135.13;5093630;27;47281;-73
2022/11/23 02:16:57;;;;;;;;;5.75;4.75;;;;;9.60;65.73;99143.69;5093808;27;45648;-74
2022/11/23 02:19:23;;;;;;;;;3.00;3.00;;;;;9.59;65.90;99142.03;5093690;27;45934;-72
2022/11/23 02:21:50;;;;;;;;;3.00;3.00;;;;;9.58;65.76;99149.03;5094055;27;45628;-74
2022/11/23 02:27:38;;;;;;;;;6.50;4.75;;;;;9.49;66.04;99125.53;5093582;27;45758;-75
2022/11/23 02:30:04;;;;;;;;;3.50;3.00;;;;;9.55;66.04;99144.09;5093635;27;45823;-73
2022/11/23 02:32:30;;;;;;;;;4.75;4.00;;;;;9.53;66.15;99134.72;5093429;27;45664;-73
2022/11/23 02:34:56;;;;;;;;;6.00;3.75;;;;;9.51;66.22;99132.25;5093457;27;46247;-72
2022/11/23 02:37:21;;;;;;;;;5.25;3.00;;;;;9.53;66.52;99132.13;5093207;27;46027;-73
2022/11/23 02:43:08;;;;;;;;;7.00;6.00;;;;;9.49;66.42;99128.97;5083595;27;45795;-74
2022/11/23 02:45:49;;;;;;;;;6.00;4.75;;;;;9.47;66.47;99116.97;5093521;27;47594;-74
2022/11/23 02:48:14;;;;;;;;;6.00;5.00;;;;;9.48;66.77;99116.03;5093698;27;46608;-73
2022/11/23 02:50:40;;;;;;;;;6.00;4.75;;;;;9.48;66.70;99113.41;5092096;27;45643;-72
2022/11/23 02:53:05;;;;;;;;;6.00;5.00;;;;;9.48;66.69;99114.25;5091928;27;45923;-72
2022/11/23 02:55:31;;;;;;;;;3.00;3.00;;;;;9.48;66.76;99116.03;5093199;27;47424;-73
2022/11/23 02:57:56;;;;;;;;;6.25;5.00;;;;;9.49;66.66;99105.44;5091671;27;46926;-73
2022/11/23 03:00:21;;;;;;;;;6.00;5.75;;;;;9.49;66.64;99112.44;5092338;27;45595;-73
2022/11/23 03:02:47;;;;;;;;;3.75;3.50;;;;;9.43;66.90;99098.16;5093729;27;45486;-75
2022/11/23 03:05:12;;;;;;;;;7.50;4.75;;;;;9.48;66.83;99103.78;5092919;27;47028;-73
2022/11/23 03:07:37;;;;;;;;;7.00;5.00;;;;;9.48;66.78;99101.16;5093177;27;46073;-74
2022/11/23 03:13:25;;;;;;;;;6.25;5.50;;;;;9.49;66.99;99097.59;5093281;27;45489;-73
2022/11/23 03:15:55;;;;;;;;;3.50;3.00;;;;;9.50;66.97;99104.44;5092873;27;47354;-74
2022/11/23 03:18:21;;;;;;;;;6.25;5.00;;;;;9.50;66.99;99094.00;5092815;27;46202;-72
2022/11/23 03:20:46;;;;;;;;;6.00;5.50;;;;;9.49;67.16;99083.69;5091636;27;45687;-73
2022/11/23 03:23:11;;;;;;;;;5.00;5.00;;;;;9.47;66.91;99085.63;5092959;27;45517;-74
2022/11/23 03:25:37;;;;;;;;;5.00;5.00;;;;;9.49;66.91;99081.91;5092964;27;45614;-75
2022/11/23 03:28:03;;;;;;;;;7.50;5.75;;;;;9.49;67.05;99081.09;5093190;27;45680;-74
2022/11/23 03:30:29;;;;;;;;;5.00;4.50;;;;;9.43;67.11;99077.25;5093006;27;45647;-74
2022/11/23 03:32:55;;;;;;;;;5.00;5.00;;;;;9.47;67.20;99075.16;5093233;27;45485;-74
2022/11/23 03:35:20;;;;;;;;;6.00;5.00;;;;;9.47;67.22;99083.00;5092547;27;46596;-74
2022/11/23 03:37:45;;;;;;;;;5.50;3.00;;;;;9.46;67.36;99076.13;5092863;27;45608;-75
2022/11/23 03:43:32;;;;;;;;;7.00;3.00;;;;;9.49;67.60;99063.63;5088543;27;45717;-74
2022/11/23 03:45:57;;;;;;;;;7.00;6.00;;;;;9.46;67.32;99053.41;5096205;27;45630;-74
2022/11/23 03:48:22;;;;;;;;;6.25;5.00;;;;;9.44;67.70;99055.38;5096156;27;45651;-73
2022/11/23 03:50:48;;;;;;;;;5.75;5.00;;;;;9.51;67.64;99066.06;5096389;27;45649;-74
2022/11/23 03:53:13;;;;;;;;;6.00;5.00;;;;;9.52;67.60;99065.09;5096512;27;45686;-74
2022/11/23 03:59:00;;;;;;;;;4.75;2.00;;;;;9.53;67.80;99053.69;5095690;27;45771;-72
2022/11/23 04:01:26;;;;;;;;;5.00;5.00;;;;;9.54;67.79;99050.13;5095822;27;45888;-72
2022/11/23 04:03:51;;;;;;;;;6.00;5.25;;;;;9.55;67.84;99049.16;5096230;27;45564;-73
2022/11/23 04:06:17;;;;;;;;;6.25;5.00;;;;;9.56;67.86;99063.84;5095973;27;45854;-74
2022/11/23 04:08:42;;;;;;;;;7.75;5.00;;;;;9.57;67.95;99055.06;5094256;27;47099;-74
2022/11/23 04:11:07;;;;;;;;;7.75;5.75;;;;;9.56;67.83;99054.22;5095527;27;45697;-73
2022/11/23 04:13:33;;;;;;;;;6.50;6.00;;;;;9.49;67.97;99045.31;5095875;27;45645;-73
2022/11/23 04:15:58;;;;;;;;;6.75;6.00;;;;;9.52;67.82;99047.63;5095543;27;46282;-72
2022/11/23 04:18:24;;;;;;;;;5.75;5.00;;;;;9.52;67.95;99044.19;5095644;27;45729;-73
2022/11/23 04:20:49;;;;;;;;;10.00;6.50;;;;;9.58;68.11;99056.72;5095496;27;45491;-74
2022/11/23 04:23:14;;;;;;;;;5.75;3.50;;;;;9.56;67.93;99042.94;5095405;27;45492;-72
2022/11/23 04:29:01;;;;;;;;;10.50;6.00;;;;;9.56;67.87;99050.78;5094406;27;46250;-74
2022/11/23 04:31:26;;;;;;;;;5.25;5.25;;;;;9.58;67.82;99044.47;5094434;27;45652;-74
2022/11/23 04:33:54;;;;;;;;;8.75;7.00;;;;;9.57;68.24;99039.38;5095262;27;45901;-73
2022/11/23 04:36:19;;;;;;;;;7.75;6.25;;;;;9.60;68.27;99031.25;5095281;27;45612;-72
2022/11/23 04:38:44;;;;;;;;;10.00;7.00;;;;;9.60;68.11;99042.53;5095049;27;46267;-74
2022/11/23 04:44:31;;;;;;;;;6.00;5.75;;;;;9.60;68.22;99036.50;5085325;27;45720;-74
2022/11/23 04:46:57;;;;;;;;;7.00;5.00;;;;;9.59;68.36;99027.81;5093658;27;46201;-73
2022/11/23 04:49:22;;;;;;;;;7.75;7.25;;;;;9.58;68.46;99026.16;5094653;27;45980;-72
2022/11/23 04:51:47;;;;;;;;;7.25;5.25;;;;;9.60;68.48;99031.25;5095203;27;45554;-73
2022/11/23 04:54:13;;;;;;;;;7.00;6.00;;;;;9.59;68.46;99027.81;5095210;27;45859;-72
2022/11/23 05:00:00;;;;;;;;;7.25;5.50;;;;;9.56;68.78;99015.00;5094777;27;46316;-73
2022/11/23 05:02:25;;;;;;;;;5.25;3.00;;;;;9.54;68.91;99006.50;5094941;27;45650;-74
2022/11/23 05:04:51;;;;;;;;;9.00;6.75;;;;;9.58;69.12;99017.50;5094868;27;45738;-73
2022/11/23 05:07:16;;;;;;;;;7.00;5.00;;;;;9.57;68.99;99016.66;5094714;27;47351;-74
2022/11/23 05:09:43;;;;;;;;;9.75;6.00;;;;;9.55;68.92;99007.34;5093831;27;45660;-73
2022/11/23 05:12:08;;;;;;;;;5.75;5.00;;;;;9.47;69.17;98996.75;5095926;27;45587;-74
2022/11/23 05:14:34;;;;;;;;;5.75;3.50;;;;;9.53;69.54;99009.25;5096150;27;45489;-74
2022/11/23 05:16:59;;;;;;;;;3.00;3.00;;;;;9.53;69.39;99007.47;5095791;27;45578;-74
2022/11/23 05:19:24;;;;;;;;;5.25;5.25;;;;;9.54;69.25;99005.69;5094532;27;47351;-74
2022/11/23 05:21:50;;;;;;;;;5.00;4.00;;;;;9.54;69.67;99005.69;5095663;27;45701;-74
2022/11/23 05:24:15;;;;;;;;;10.25;5.75;;;;;9.54;69.69;99010.91;5095268;27;45790;-74
2022/11/23 05:30:02;;;;;;;;;8.00;7.00;;;;;9.47;69.63;98999.34;5094295;27;45630;-72
2022/11/23 05:32:28;;;;;;;;;5.00;3.00;;;;;9.49;69.75;99000.06;5094628;27;45732;-74
2022/11/23 05:34:53;;;;;;;;;3.00;3.00;;;;;9.44;70.07;98994.44;5094770;27;45695;-73
2022/11/23 05:37:18;;;;;;;;;5.25;3.00;;;;;9.53;70.06;99015.31;5094568;27;45618;-74
2022/11/23 05:39:44;;;;;;;;;5.75;4.25;;;;;9.53;69.93;99017.09;5093005;27;47129;-73
2022/11/23 05:45:31;;;;;;;;;4.00;2.75;;;;;9.54;69.98;99014.34;5084227;27;45726;-72
2022/11/23 05:47:58;;;;;;;;;3.25;3.00;;;;;9.56;69.85;99015.00;5094100;27;46296;-74
2022/11/23 05:50:26;;;;;;;;;3.00;3.00;;;;;9.53;70.19;98991.78;5094262;27;45967;-74
2022/11/23 05:52:52;;;;;;;;;3.00;3.00;;;;;9.60;70.30;98998.09;5094330;27;45570;-74
2022/11/23 05:55:17;;;;;;;;;4.50;2.00;;;;;9.56;70.22;98994.09;5094229;27;45980;-75
2022/11/23 05:57:43;;;;;;;;;5.00;4.00;;;;;9.49;70.49;98979.13;5092984;27;45839;-73
2022/11/23 06:00:09;;;;;;;;;7.00;5.75;;;;;9.64;70.19;99004.69;5094327;27;45670;-74
2022/11/23 06:02:35;;;;;;;;;5.00;4.75;;;;;9.64;70.29;99004.69;5094274;27;45653;-75
2022/11/23 06:05:00;;;;;;;;;5.75;3.00;;;;;9.63;70.06;98989.94;5094190;27;45668;-74
2022/11/23 06:07:26;;;;;;;;;6.75;5.00;;;;;9.65;70.64;98997.66;5093372;27;45607;-71
2022/11/23 06:09:51;;;;;;;;;5.25;5.00;;;;;9.66;70.47;98989.66;5093743;27;46518;-73
2022/11/23 06:15:38;;;;;;;;;7.25;6.75;;;;;9.74;70.38;98993.34;5093940;27;45699;-74
2022/11/23 06:18:04;;;;;;;;;11.00;6.00;;;;;9.74;70.69;98996.78;5093518;27;47245;-72
2022/11/23 06:20:29;;;;;;;;;7.25;6.00;;;;;9.75;70.41;98998.44;5093355;27;46827;-74
2022/11/23 06:22:56;;;;;;;;;6.50;6.00;;;;;9.75;70.49;98990.59;5093576;27;45973;-73
2022/11/23 06:25:21;;;;;;;;;6.00;5.00;;;;;9.79;70.44;98988.50;5093969;27;45515;-73
2022/11/23 06:31:09;;;;;;;;;3.00;3.00;;;;;9.81;70.82;98982.19;5093359;27;46130;-74
2022/11/23 06:33:34;;;;;;;;;6.00;6.00;;;;;9.82;70.71;98980.41;5093715;27;45820;-73
2022/11/23 06:36:01;;;;;;;;;6.25;5.00;;;;;9.78;70.59;98969.38;5093605;27;45564;-74
2022/11/23 06:38:28;;;;;;;;;5.25;5.25;;;;;9.73;70.82;98953.31;5093639;27;45645;-72
2022/11/23 06:40:57;;;;;;;;;6.50;4.75;;;;;9.82;70.99;98957.69;5093548;27;46191;-75
2022/11/23 06:46:43;;;;;;;;;7.00;6.00;;;;;9.81;71.12;98942.13;5082518;27;45637;-75
2022/11/23 06:49:09;;;;;;;;;7.00;5.50;;;;;9.84;71.24;98947.06;5091702;27;46402;-73
2022/11/23 06:51:34;;;;;;;;;5.25;4.00;;;;;9.87;70.84;98954.63;5091969;27;47425;-74
2022/11/23 06:54:00;;;;;;;;;5.00;5.00;;;;;9.88;70.71;98949.22;5091641;27;45533;-74
2022/11/23 06:56:25;;;;;;;;;5.50;3.00;;;;;9.87;70.94;98941.56;5093533;27;45529;-75
2022/11/23 06:58:50;;;;;;;;;6.00;4.25;;;;;9.91;70.94;98942.91;5092146;27;46436;-74
2022/11/23 07:01:16;;;;;;;;;7.00;5.75;;;;;9.92;70.90;98948.00;5094003;27;45582;-75
2022/11/23 07:03:41;;;;;;;;;6.00;5.75;;;;;9.90;70.97;98925.56;5093276;27;45536;-75
2022/11/23 07:06:08;;;;;;;;;4.50;3.00;;;;;9.96;71.07;98938.88;5092976;27;45772;-75
2022/11/23 07:08:38;;;;;;;;;4.25;3.00;;;;;9.95;71.02;98929.38;5093314;27;46638;-74
2022/11/23 07:11:05;;;;;;;;;3.00;3.00;;;;;10.01;70.72;98935.81;5093586;27;46061;-74
2022/11/23 07:16:52;;;;;;;;;3.00;3.00;;;;;10.04;70.97;98938.94;5093414;27;45664;-75
2022/11/23 07:19:18;;;;;;;;;4.00;3.00;;;;;10.05;70.48;98932.75;5092663;27;46490;-76
2022/11/23 07:21:44;;;;;;;;;3.50;2.50;;;;;10.05;70.81;98938.00;5095831;27;46083;-78
2022/11/23 07:24:09;;;;;;;;;6.75;6.00;;;;;10.09;70.70;98949.00;5096757;27;45893;-78
2022/11/23 07:26:36;;;;;;;;;10.00;6.00;;;;;10.08;70.69;98936.88;5095201;27;45749;-80
2022/11/23 07:32:23;;;;;;;;;5.50;3.75;;;;;10.13;70.54;98934.66;5096111;27;46027;-77
2022/11/23 07:34:48;;;;;;;;;2.00;2.00;;;;;10.18;70.46;98950.75;5094650;27;45552;-77
2022/11/23 07:37:13;;;;;;;;;6.00;4.75;;;;;10.19;70.48;98962.88;5096818;27;45592;-78
2022/11/23 07:39:39;;;;;;;;;2.50;2.00;;;;;10.22;70.33;98946.06;5096085;27;46885;-79
2022/11/23 07:42:05;;;;;;;;;6.50;5.00;;;;;10.23;70.21;98959.00;5096647;27;45937;-77
2022/11/23 07:44:30;;;;;;;;;5.25;4.00;;;;;10.26;70.16;98950.84;5095619;27;45565;-78
2022/11/23 07:46:56;;;;;;;;;4.25;4.25;;;;;10.25;69.75;98945.78;5096305;27;45836;-78
2022/11/23 07:49:21;;;;;;;;;2.25;2.00;;;;;10.22;69.90;98946.88;5096325;27;45606;-76
2022/11/23 07:51:46;;;;;;;;;3.00;2.00;;;;;10.31;69.86;98942.56;5095960;27;46263;-76
2022/11/23 07:54:12;;;;;;;;;2.25;2.25;;;;;10.31;69.91;98938.13;5096138;27;45724;-77
2022/11/23 07:56:38;;;;;;;;;4.25;3.25;;;;;10.31;69.91;98942.56;5096373;27;45681;-77
2022/11/23 08:02:25;;;;;;;;;5.00;3.00;;;;;10.19;69.64;98921.00;5096008;27;45867;-76
2022/11/23 08:04:50;;;;;;;;;3.25;2.50;;;;;10.32;69.91;98945.00;5095615;27;45669;-76
2022/11/23 08:07:15;;;;;;;;;1.75;1.75;;;;;10.31;69.88;98943.38;5096287;27;45683;-77
2022/11/23 08:09:41;;;;;;;;;3.00;1.75;;;;;10.28;69.61;98940.22;5095885;27;46291;-75
2022/11/23 08:12:08;;;;;;;;;2.00;2.00;;;;;10.34;69.74;98948.31;5095616;27;46272;-77
2022/11/23 08:17:56;;;;;;;;;3.00;3.00;;;;;10.27;70.07;98923.69;5095934;27;45529;-78
2022/11/23 08:20:21;;;;;;;;;4.00;2.00;;;;;10.31;70.11;98932.88;5095928;27;46517;-75
2022/11/23 08:22:47;;;;;;;;;3.00;3.00;;;;;10.25;69.78;98927.44;5094435;27;48024;-78
2022/11/23 08:25:12;;;;;;;;;3.75;3.50;;;;;10.32;69.87;98925.88;5095980;27;45756;-77
2022/11/23 08:27:38;;;;;;;;;2.50;2.25;;;;;10.34;69.92;98919.53;5095329;27;45566;-76
2022/11/23 08:30:04;;;;;;;;;3.50;2.25;;;;;10.36;69.94;98922.81;5093808;27;46574;-76
2022/11/23 08:32:29;;;;;;;;;3.75;2.75;;;;;10.37;69.96;98923.63;5093936;27;45818;-77
2022/11/23 08:34:54;;;;;;;;;4.25;3.75;;;;;10.34;69.91;98916.91;5094198;27;45733;-76
2022/11/23 08:37:20;;;;;;;;;3.00;2.00;;;;;10.39;69.96;98908.59;5092886;27;45986;-76
2022/11/23 08:39:45;;;;;;;;;2.25;2.25;;;;;10.40;69.91;98891.94;5093972;27;46241;-77
2022/11/23 08:42:11;;;;;;;;;3.00;2.00;;;;;10.40;70.00;98892.75;5094090;27;46437;-77
2022/11/23 08:47:59;;;;;;;;;4.00;4.00;;;;;10.47;69.80;98875.44;5082689;27;45771;-76
2022/11/23 08:50:25;;;;;;;;;3.75;3.00;;;;;10.43;69.79;98850.56;5093740;27;47483;-77
2022/11/23 08:52:58;;;;;;;;;2.00;2.00;;;;;10.51;69.88;98855.03;5093714;27;46927;-78
2022/11/23 08:55:24;;;;;;;;;2.75;2.00;;;;;10.51;69.76;98855.03;5093642;27;45910;-77
2022/11/23 08:57:53;;;;;;;;;1.00;1.00;;;;;10.48;69.72;98863.19;5094056;27;45817;-76
2022/11/23 09:00:19;;;;;;;;;1.75;1.50;;;;;10.53;69.64;98869.63;5093927;27;45777;-78
2022/11/23 09:02:44;;;;;;;;;1.50;1.00;;;;;10.56;69.69;98870.28;5094770;27;46016;-77
2022/11/23 09:05:10;;;;;;;;;4.00;2.00;;;;;10.56;69.78;98860.66;5094299;27;46028;-77
2022/11/23 09:07:35;;;;;;;;;2.00;2.00;;;;;10.57;69.47;98866.72;5095912;27;45867;-77
2022/11/23 09:10:01;;;;;;;;;2.00;2.00;;;;;10.58;69.67;98861.28;5095877;27;46453;-78
2022/11/23 09:12:27;;;;;;;;;2.50;2.00;;;;;10.57;69.86;98851.81;5094523;27;46252;-76
2022/11/23 09:18:14;;;;;;;;;3.00;2.25;;;;;10.57;69.85;98840.53;5097712;27;45649;-76
2022/11/23 09:20:39;;;;;;;;;4.25;3.00;;;;;10.59;69.88;98841.19;5096147;27;46218;-76
2022/11/23 09:23:04;;;;;;;;;2.50;2.00;;;;;10.52;69.83;98828.72;5095785;27;47359;-76
2022/11/23 09:25:30;;;;;;;;;2.50;2.00;;;;;10.61;70.16;98840.06;5096538;27;45613;-76
2022/11/23 09:27:58;;;;;;;;;1.75;1.75;;;;;10.62;69.96;98844.34;5095709;27;45509;-76
2022/11/23 09:33:45;;;;;;;;;3.25;2.00;;;;;10.59;70.02;98823.66;5094508;27;46169;-77
2022/11/23 09:36:10;;;;;;;;;3.00;3.00;;;;;10.59;70.39;98823.66;5093204;27;45636;-77
2022/11/23 09:38:37;;;;;;;;;2.75;1.25;;;;;10.63;70.33;98818.97;5094449;27;45548;-77
2022/11/23 09:41:25;;;;;;;;;2.00;2.00;;;;;10.67;70.19;98828.97;5094428;27;45719;-76
2022/11/23 09:44:00;;;;;;;;;1.25;1.25;;;;;10.69;70.49;98820.97;5094253;27;45663;-75
2022/11/23 09:46:36;;;;;;;;;1.00;1.00;;;;;10.70;70.43;98817.34;5094386;27;45714;-76
2022/11/23 09:49:12;;;;;;;;;0.00;0.00;;;;;10.70;70.56;98820.81;5094189;27;46025;-76
2022/11/23 09:51:40;;;;;;;;;2.50;2.00;;;;;10.67;70.52;98813.25;5093166;27;45958;-76
2022/11/23 09:54:15;;;;;;;;;1.00;1.00;;;;;10.70;70.61;98801.66;5092975;27;46395;-77
2022/11/23 09:56:45;;;;;;;;;1.25;1.25;;;;;10.64;70.52;98800.47;5094241;27;45866;-76
2022/11/23 09:59:20;;;;;;;;;3.00;2.00;;;;;10.71;70.91;98821.63;5094398;27;45828;-77
2022/11/23 10:01:46;;;;;;;;;2.00;2.00;;;;;10.69;70.80;98800.81;5094096;27;46724;-76
2022/11/23 10:04:19;;;;;;;;;1.00;0.00;;;;;10.68;70.88;98806.22;5094446;27;46288;-76
2022/11/23 10:06:56;;;;;;;;;2.00;1.00;;;;;10.69;70.84;98802.66;5094502;27;45639;-76
2022/11/23 10:09:31;;;;;;;;;2.00;2.00;;;;;10.69;71.13;98813.91;5094512;27;45687;-77
2022/11/23 10:12:12;;;;;;;;;2.00;1.75;;;;;10.69;71.03;98803.44;5092485;27;48044;-77
2022/11/23 10:14:56;;;;;;;;;2.75;1.75;;;;;10.67;71.22;98810.66;5093737;27;46042;-75
2022/11/23 10:17:44;;;;;;;;;4.00;2.25;;;;;10.67;71.20;98800.16;5093861;27;45760;-77
2022/11/23 10:20:33;;;;;;;;;2.00;1.00;;;;;10.68;71.38;98840.28;5093982;27;45619;-76
2022/11/23 10:23:01;;;;;;;;;2.00;2.00;;;;;10.61;71.78;98803.41;5093847;27;46464;-76
2022/11/23 10:25:33;;;;;;;;;1.25;1.25;;;;;10.64;71.60;98824.03;5093853;27;45940;-76
2022/11/23 10:28:05;;;;;;;;;2.00;2.00;;;;;10.62;71.90;98825.19;5093635;27;45478;-76
2022/11/23 10:30:31;;;;;;;;;1.00;1.00;;;;;10.61;71.78;98823.53;5093860;27;45678;-75
2022/11/23 10:33:16;;;;;;;;;2.75;2.75;;;;;10.66;72.04;98829.13;5093743;27;46179;-76
2022/11/23 10:35:41;;;;;;;;;2.00;1.75;;;;;10.66;72.06;98840.41;5093344;27;46242;-77
2022/11/23 10:38:19;;;;;;;;;2.00;1.50;;;;;10.59;72.04;98817.59;5093531;27;45581;-77
2022/11/23 10:41:12;;;;;;;;;2.50;1.00;;;;;10.65;72.18;98837.94;5092491;27;45592;-76
2022/11/23 10:43:40;;;;;;;;;1.50;1.00;;;;;10.65;71.99;98851.88;5013846;28;45818;-76
2022/11/23 10:46:29;;;;;;;;;2.00;1.50;;;;;10.67;72.43;98849.09;5030777;28;46079;-77
2022/11/23 10:49:06;;;;;;;;;1.25;1.25;;;;;10.64;72.26;98858.06;5030506;28;45798;-77
2022/11/23 10:51:32;;;;;;;;;1.25;1.25;;;;;10.66;72.36;98848.28;5030821;28;45955;-76
2022/11/23 10:54:06;;;;;;;;;2.00;2.00;;;;;10.73;72.19;98851.13;5015792;28;48702;-75
2022/11/23 10:56:33;;;;;;;;;2.00;1.00;;;;;10.67;72.33;98859.59;5034018;28;45747;-76
2022/11/23 11:02:20;;;;;;;;;2.00;1.00;;;;;10.80;72.48;98855.56;5035248;28;45654;-75
2022/11/23 11:04:47;;;;;;;;;1.75;1.75;;;;;10.83;72.59;98868.38;5034932;28;45724;-76
2022/11/23 11:07:21;;;;;;;;;1.50;1.25;;;;;10.88;72.31;98873.97;5035753;28;45952;-77
2022/11/23 11:10:00;;;;;;;;;2.00;1.25;;;;;10.93;72.52;98871.72;5034558;28;45723;-76
2022/11/23 11:12:28;;;;;;;;;1.00;1.00;;;;;10.95;72.53;98863.72;5034798;28;45513;-75
2022/11/23 11:18:18;;;;;;;;;4.00;2.00;;;;;11.06;72.69;98875.72;5034653;28;45842;-76
2022/11/23 11:20:44;;;;;;;;;3.00;2.25;;;;;11.10;72.56;98877.06;5065620;27;45980;-77
2022/11/23 11:23:19;;;;;;;;;3.50;2.75;;;;;11.08;72.58;98871.97;5097777;27;45621;-79
2022/11/23 11:25:46;;;;;;;;;2.00;2.00;;;;;11.08;72.71;98871.13;5096561;27;47380;-78
2022/11/23 11:28:33;;;;;;;;;2.00;1.75;;;;;11.21;72.98;98895.97;5097032;27;45883;-76
2022/11/23 11:34:40;;;;;;;;;2.00;1.00;;;;;11.27;73.08;98890.13;5096886;27;45658;-77
2022/11/23 11:37:18;;;;;;;;;2.00;1.00;;;;;11.33;73.20;98904.41;5097241;27;45689;-77
2022/11/23 11:39:43;;;;;;;;;1.00;1.00;;;;;11.37;73.42;98913.59;5097119;27;46156;-76
2022/11/23 11:42:18;;;;;;;;;6.00;3.75;;;;;11.40;73.92;98910.63;5097790;27;45690;-76
2022/11/23 11:44:47;;;;;;;;;1.75;1.00;;;;;11.40;73.93;98913.25;5079714;27;46018;-77
2022/11/23 11:47:26;;;;;;;;;5.00;4.00;;;;;11.48;74.00;98929.06;5096825;27;46700;-75
2022/11/23 11:49:57;;;;;;;;;2.00;1.50;;;;;11.48;74.26;98915.94;5096341;27;45679;-77
2022/11/23 11:52:31;;;;;;;;;1.75;1.00;;;;;11.58;74.23;98926.31;5096620;27;45551;-74
2022/11/23 11:55:06;;;;;;;;;2.00;2.00;;;;;11.62;74.29;98927.63;5097254;27;46018;-77
2022/11/23 11:57:54;;;;;;;;;2.00;1.50;;;;;11.69;74.33;98929.47;5096754;27;46936;-77
2022/11/23 12:00:20;;;;;;;;;1.00;0.75;;;;;11.78;74.47;98931.19;5097553;27;46286;-77
2022/11/23 12:02:59;;;;;;;;;0.25;0.25;;;;;11.85;74.20;98931.38;5097313;27;45724;-75
2022/11/23 12:05:48;;;;;;;;;1.75;0.50;;;;;11.92;74.22;98942.06;5097430;27;45614;-77
2022/11/23 12:08:43;;;;;;;;;1.00;1.00;;;;;11.97;74.04;98942.41;5034606;28;47315;-75
2022/11/23 12:11:11;;;;;;;;;1.00;1.00;;;;;12.00;74.38;98936.84;5033069;28;46103;-75
2022/11/23 12:13:41;;;;;;;;;1.00;1.00;;;;;12.05;74.18;98942.44;5033049;28;45816;-76
2022/11/23 12:16:22;;;;;;;;;1.50;1.00;;;;;12.10;74.18;98940.16;5032941;28;45614;-76
2022/11/23 12:19:00;;;;;;;;;1.50;1.50;;;;;12.18;74.30;98950.69;5032593;28;46805;-76
2022/11/23 12:21:53;;;;;;;;;3.00;2.75;;;;;12.25;74.01;98946.44;5033290;28;46154;-77
2022/11/23 12:24:34;;;;;;;;;0.75;0.50;;;;;12.27;74.16;98951.50;5032565;28;45787;-77
2022/11/23 12:27:37;;;;;;;;;0.25;0.00;;;;;12.32;73.93;98963.19;5032829;28;45666;-76
2022/11/23 12:34:08;;;;;;;;;1.50;1.00;;;;;12.41;73.68;98978.00;5032445;28;45845;-76
2022/11/23 12:36:34;;;;;;;;;1.50;1.00;;;;;12.46;73.64;98973.09;4934461;28;45797;-77
2022/11/23 12:39:42;;;;;;;;;1.00;1.00;;;;;12.54;73.25;98998.53;4934446;28;45883;-78
2022/11/23 12:42:48;;;;;;;;;1.00;1.00;;;;;12.61;73.16;98981.97;4934249;28;46474;-77
2022/11/23 12:48:56;;;;;;;;;0.00;0.00;;;;;12.75;72.06;99019.09;4897110;28;45833;-78
2022/11/23 12:51:51;;;;;;;;;0.50;0.50;;;;;12.82;72.07;98999.91;4915127;28;45799;-78
2022/11/23 12:54:46;;;;;;;;;0.00;0.00;;;;;12.89;71.32;99010.59;4858219;29;45791;-78
2022/11/23 12:57:21;;;;;;;;;0.00;0.00;;;;;12.94;71.45;99014.38;4858043;29;46649;-76
2022/11/23 12:59:55;;;;;;;;;1.00;1.00;;;;;13.02;70.83;99026.69;4858001;29;45687;-76
2022/11/23 13:06:08;;;;;;;;;0.25;0.00;;;;;13.16;70.01;99035.78;4858221;28;46252;-78
2022/11/23 13:09:03;;;;;;;;;1.75;0.00;;;;;13.28;70.33;99048.41;4858329;29;46071;-77
2022/11/23 13:11:53;;;;;;;;;0.00;0.00;;;;;13.31;69.92;99052.53;4858186;29;45818;-77
2022/11/23 13:14:55;;;;;;;;;1.50;1.00;;;;;13.46;69.31;99074.56;4953359;28;45891;-78
2022/11/23 13:21:07;;;;;;;;;1.00;0.00;;;;;13.62;69.45;99073.72;4954953;28;46024;-78
2022/11/23 13:23:37;;;;;;;;;1.00;0.00;;;;;13.61;69.74;99107.09;5031819;28;45684;-75